Time;durP1;ratioP1;P1;durP2;ratioP2;P2;SDS_P1;SDS_P2;PMS_P1;PMS_P2;Temp;Humidity;BMP_temperature;BMP_pressure;BME280_temperature;BME280_humidity;BME280_pressure;Samples;Min_cycle;Max_cycle;Signal;HPM_P1;HPM_P2
2021/07/24 00:01:08;;;;;;;11.93;9.10;;;22.10;90.90;;;;;;5049759;28;20032;-67
2021/07/24 00:03:34;;;;;;;10.70;9.18;;;22.00;90.80;;;;;;5057583;28;20052;-68
2021/07/24 00:11:05;;;;;;;12.65;9.75;;;22.00;90.90;;;;;;5297102;22;20080;-77
2021/07/24 00:13:35;;;;;;;13.27;9.40;;;22.00;91.00;;;;;;5035146;28;20090;-77
2021/07/24 00:16:01;;;;;;;13.63;10.07;;;21.90;91.20;;;;;;5025940;28;20033;-75
2021/07/24 00:18:26;;;;;;;18.27;10.05;;;21.90;91.20;;;;;;5024241;28;20028;-75
2021/07/24 00:20:52;;;;;;;11.95;9.27;;;21.80;91.30;;;;;;5025998;28;20037;-75
2021/07/24 00:23:18;;;;;;;16.30;9.35;;;21.80;91.40;;;;;;5024817;28;20046;-75
2021/07/24 00:25:43;;;;;;;11.52;9.15;;;21.80;92.00;;;;;;5025749;28;20057;-75
2021/07/24 00:28:10;;;;;;;13.38;9.30;;;21.80;92.10;;;;;;5024005;28;20025;-77
2021/07/24 00:30:37;;;;;;;10.32;8.70;;;21.70;92.50;;;;;;5025440;28;20505;-76
2021/07/24 00:33:03;;;;;;;10.48;9.40;;;21.60;92.50;;;;;;5026987;28;20114;-75
2021/07/24 00:35:28;;;;;;;24.63;10.63;;;21.70;92.60;;;;;;5024846;28;20129;-77
2021/07/24 00:37:54;;;;;;;12.50;8.75;;;21.70;92.60;;;;;;5025359;28;20118;-71
2021/07/24 00:40:25;;;;;;;12.95;9.55;;;21.70;92.40;;;;;;5027607;28;20222;-77
2021/07/24 00:42:53;;;;;;;14.05;8.38;;;21.60;92.50;;;;;;5026523;28;20044;-70
2021/07/24 00:45:20;;;;;;;16.15;8.60;;;21.50;92.70;;;;;;5024815;28;20471;-77
2021/07/24 00:47:49;;;;;;;10.27;9.00;;;21.60;92.50;;;;;;5017300;28;20104;-77
2021/07/24 00:50:16;;;;;;;13.38;9.15;;;21.60;92.70;;;;;;5025772;28;20025;-78
2021/07/24 00:52:43;;;;;;;12.50;8.00;;;21.60;92.80;;;;;;5034333;28;20033;-74
2021/07/24 00:55:11;;;;;;;11.23;8.85;;;21.60;93.00;;;;;;5034787;28;20053;-77
2021/07/24 00:57:42;;;;;;;17.17;8.90;;;21.50;93.10;;;;;;5036266;28;20485;-77
2021/07/24 01:00:09;;;;;;;10.67;8.87;;;21.60;93.10;;;;;;5039868;28;20076;-76
2021/07/24 01:02:36;;;;;;;11.90;9.07;;;21.60;93.20;;;;;;5042570;28;20292;-76
2021/07/24 01:05:03;;;;;;;14.45;8.88;;;21.60;93.10;;;;;;5034655;28;20104;-76
2021/07/24 01:07:32;;;;;;;10.40;8.38;;;21.50;93.30;;;;;;5038145;28;20029;-77
2021/07/24 01:09:58;;;;;;;11.27;8.98;;;21.40;93.70;;;;;;5038778;28;20079;-75
2021/07/24 01:12:24;;;;;;;14.88;9.38;;;21.30;92.70;;;;;;5039683;28;20061;-76
2021/07/24 01:14:51;;;;;;;11.65;8.57;;;21.30;92.70;;;;;;5038587;28;20136;-75
2021/07/24 01:17:17;;;;;;;13.05;8.88;;;21.30;92.70;;;;;;5038014;28;20032;-77
2021/07/24 01:19:42;;;;;;;9.45;8.45;;;21.30;92.90;;;;;;5036705;28;20402;-77
2021/07/24 01:22:08;;;;;;;11.13;8.93;;;21.30;92.90;;;;;;5039213;28;20040;-76
2021/07/24 01:24:34;;;;;;;10.98;8.60;;;21.20;93.00;;;;;;5038349;28;20068;-76
2021/07/24 01:27:13;;;;;;;11.07;9.07;;;21.20;93.10;;;;;;5036150;28;20028;-75
2021/07/24 01:29:38;;;;;;;15.52;9.18;;;21.20;93.20;;;;;;5033889;28;20026;-76
2021/07/24 01:32:05;;;;;;;15.63;9.38;;;21.20;93.30;;;;;;5034078;28;20033;-75
2021/07/24 01:34:31;;;;;;;12.88;9.32;;;21.20;93.30;;;;;;5036232;28;20033;-77
2021/07/24 01:36:57;;;;;;;15.15;9.25;;;21.20;93.30;;;;;;5034352;28;20458;-68
2021/07/24 01:39:23;;;;;;;13.50;9.02;;;21.10;93.40;;;;;;5034864;28;20121;-75
2021/07/24 01:41:49;;;;;;;11.02;8.55;;;21.10;93.50;;;;;;5034004;28;20064;-74
2021/07/24 01:44:15;;;;;;;14.88;8.65;;;21.00;93.50;;;;;;5033723;28;20462;-77
2021/07/24 01:46:41;;;;;;;10.00;9.00;;;20.90;93.70;;;;;;5032994;28;20032;-75
2021/07/24 01:49:19;;;;;;;10.10;8.00;;;21.10;95.00;;;;;;5033185;28;20069;-75
2021/07/24 01:54:53;;;;;;;13.05;8.68;;;21.10;95.40;;;;;;5033908;28;20036;-76
2021/07/24 01:57:21;;;;;;;12.18;8.15;;;21.10;95.60;;;;;;5033676;28;20401;-75
2021/07/24 01:59:47;;;;;;;13.77;9.35;;;21.10;95.80;;;;;;5032558;28;20030;-75
2021/07/24 02:02:16;;;;;;;9.43;7.97;;;21.10;95.90;;;;;;5032396;28;20040;-75
2021/07/24 02:04:50;;;;;;;12.15;9.57;;;21.10;95.90;;;;;;5015608;28;20484;-75
2021/07/24 02:07:17;;;;;;;13.30;9.38;;;21.10;95.80;;;;;;5031176;28;20622;-74
2021/07/24 02:09:43;;;;;;;10.88;8.75;;;21.10;95.90;;;;;;5031546;28;20045;-75
2021/07/24 02:12:10;;;;;;;10.45;9.07;;;21.10;95.80;;;;;;5030439;28;20439;-74
2021/07/24 02:14:36;;;;;;;11.65;7.85;;;21.00;95.60;;;;;;5032992;28;20112;-75
2021/07/24 02:17:02;;;;;;;12.57;8.63;;;21.00;95.60;;;;;;5031406;28;20128;-74
2021/07/24 02:19:30;;;;;;;12.98;9.15;;;21.00;95.90;;;;;;5031308;28;20101;-76
2021/07/24 02:21:57;;;;;;;9.63;8.63;;;21.00;96.20;;;;;;5030541;28;20439;-74
2021/07/24 02:24:23;;;;;;;12.45;8.40;;;21.10;96.30;;;;;;5030837;28;20021;-76
2021/07/24 02:26:48;;;;;;;12.13;8.52;;;21.00;96.50;;;;;;5030548;28;20083;-75
2021/07/24 02:29:14;;;;;;;10.20;8.82;;;21.00;97.10;;;;;;5029826;28;20025;-75
2021/07/24 02:31:40;;;;;;;12.93;8.70;;;20.90;98.10;;;;;;5031825;28;20101;-75
2021/07/24 02:34:05;;;;;;;10.43;8.77;;;20.80;98.50;;;;;;5031024;28;20026;-75
2021/07/24 02:36:31;;;;;;;12.70;8.93;;;20.80;98.30;;;;;;5032074;28;20032;-77
2021/07/24 02:38:57;;;;;;;10.65;9.05;;;20.80;98.30;;;;;;5032097;28;20049;-70
2021/07/24 02:41:23;;;;;;;12.05;9.82;;;20.80;98.10;;;;;;5031285;28;20136;-76
2021/07/24 02:43:48;;;;;;;10.73;7.70;;;20.80;98.10;;;;;;5032117;28;20025;-77
2021/07/24 02:46:18;;;;;;;12.48;10.02;;;20.70;98.10;;;;;;5031568;28;20021;-77
2021/07/24 02:48:47;;;;;;;12.88;8.93;;;20.70;97.90;;;;;;5032035;28;20421;-77
2021/07/24 02:51:14;;;;;;;10.73;9.15;;;20.70;97.70;;;;;;5028937;28;20132;-77
2021/07/24 02:53:40;;;;;;;13.65;9.55;;;20.70;97.50;;;;;;5032413;28;20442;-76
2021/07/24 02:56:06;;;;;;;10.48;8.15;;;20.70;97.40;;;;;;5031212;28;20030;-76
2021/07/24 02:58:31;;;;;;;9.57;7.85;;;20.70;97.50;;;;;;5032697;28;20022;-76
2021/07/24 03:00:57;;;;;;;12.25;9.10;;;20.70;97.40;;;;;;5032099;28;20021;-77
2021/07/24 03:03:23;;;;;;;15.70;8.32;;;20.70;97.20;;;;;;5029859;28;20112;-77
2021/07/24 03:05:49;;;;;;;11.75;8.82;;;20.70;97.20;;;;;;5031781;28;20029;-77
2021/07/24 03:08:15;;;;;;;8.90;7.63;;;20.80;97.20;;;;;;5031172;28;20045;-77
2021/07/24 03:10:40;;;;;;;9.05;8.13;;;20.80;97.00;;;;;;5031557;28;20589;-77
2021/07/24 03:13:06;;;;;;;10.50;8.32;;;20.70;97.20;;;;;;5030727;28;20368;-77
2021/07/24 03:15:32;;;;;;;10.10;8.93;;;20.70;97.30;;;;;;5030275;28;20456;-76
2021/07/24 03:17:57;;;;;;;10.85;8.75;;;20.70;97.20;;;;;;5031771;28;20029;-77
2021/07/24 03:20:23;;;;;;;19.08;9.43;;;20.70;97.20;;;;;;5031355;28;20038;-79
2021/07/24 03:22:49;;;;;;;11.07;8.02;;;20.70;97.30;;;;;;5031879;28;20400;-78
2021/07/24 03:25:14;;;;;;;13.68;9.18;;;20.70;97.40;;;;;;5029380;28;20080;-78
2021/07/24 03:27:40;;;;;;;16.00;9.57;;;20.70;97.20;;;;;;5030674;28;20029;-77
2021/07/24 03:30:07;;;;;;;10.57;9.32;;;20.60;97.40;;;;;;5029360;28;20022;-77
2021/07/24 03:32:33;;;;;;;15.60;9.35;;;20.60;97.60;;;;;;5029625;28;20026;-79
2021/07/24 03:34:58;;;;;;;12.93;9.82;;;20.60;97.50;;;;;;5031896;28;20032;-76
2021/07/24 03:37:24;;;;;;;11.35;8.73;;;20.50;97.60;;;;;;5030791;28;20036;-77
2021/07/24 03:39:50;;;;;;;10.18;8.65;;;20.60;97.60;;;;;;5030591;28;20029;-78
2021/07/24 03:42:15;;;;;;;12.48;8.93;;;20.50;97.40;;;;;;5032952;28;20042;-77
2021/07/24 03:44:41;;;;;;;12.95;8.90;;;20.50;97.60;;;;;;5035800;28;20481;-78
2021/07/24 03:47:07;;;;;;;14.50;9.20;;;20.50;97.40;;;;;;5035196;28;20461;-77
2021/07/24 03:49:32;;;;;;;12.40;9.52;;;20.60;97.30;;;;;;5034932;28;20055;-78
2021/07/24 03:51:58;;;;;;;10.57;8.48;;;20.40;97.40;;;;;;5033894;28;20104;-77
2021/07/24 03:54:24;;;;;;;11.00;8.93;;;20.50;97.50;;;;;;5033381;28;20028;-78
2021/07/24 03:56:49;;;;;;;11.25;8.27;;;20.40;97.70;;;;;;5035409;28;20026;-78
2021/07/24 03:59:15;;;;;;;12.05;8.60;;;20.50;97.90;;;;;;5034164;28;20425;-78
2021/07/24 04:01:43;;;;;;;13.30;9.10;;;20.60;97.80;;;;;;5033329;28;20047;-77
2021/07/24 04:04:09;;;;;;;11.48;8.48;;;20.60;97.80;;;;;;5033006;28;20339;-78
2021/07/24 04:06:35;;;;;;;10.60;9.05;;;20.50;97.70;;;;;;5033261;28;20089;-78
2021/07/24 04:09:01;;;;;;;16.35;9.68;;;20.60;97.60;;;;;;5034434;28;20064;-77
2021/07/24 04:11:28;;;;;;;15.80;9.02;;;20.60;97.50;;;;;;5033568;28;20103;-78
2021/07/24 04:13:54;;;;;;;12.85;8.80;;;20.40;97.80;;;;;;5034923;28;20458;-78
2021/07/24 04:16:20;;;;;;;11.15;9.30;;;20.50;98.00;;;;;;5033832;28;20463;-79
2021/07/24 04:18:47;;;;;;;12.90;8.65;;;20.50;97.80;;;;;;5034369;28;20050;-78
2021/07/24 04:21:13;;;;;;;11.65;9.15;;;20.60;97.70;;;;;;5033870;28;20637;-76
2021/07/24 04:23:39;;;;;;;10.77;9.20;;;20.50;97.80;;;;;;5034459;28;20124;-77
2021/07/24 04:26:05;;;;;;;11.27;8.93;;;20.50;98.00;;;;;;5034100;28;20377;-69
2021/07/24 04:28:31;;;;;;;10.15;8.60;;;20.50;98.00;;;;;;5034317;28;20036;-78
2021/07/24 04:30:56;;;;;;;13.30;8.60;;;20.60;97.90;;;;;;5033157;28;20079;-77
2021/07/24 04:33:22;;;;;;;10.98;9.45;;;20.60;97.90;;;;;;5032501;28;20083;-76
2021/07/24 04:35:49;;;;;;;15.25;9.60;;;20.40;98.10;;;;;;5032815;28;20033;-76
2021/07/24 04:38:15;;;;;;;11.63;9.20;;;20.50;98.20;;;;;;5033462;28;20111;-76
2021/07/24 04:40:42;;;;;;;11.68;8.60;;;20.70;98.00;;;;;;5033869;28;20095;-76
2021/07/24 04:43:07;;;;;;;11.23;8.68;;;20.60;97.90;;;;;;5032133;28;20037;-69
2021/07/24 04:45:34;;;;;;;11.80;8.63;;;20.60;98.10;;;;;;5032251;28;20121;-77
2021/07/24 04:47:59;;;;;;;10.57;8.75;;;20.70;98.00;;;;;;5033249;28;20026;-77
2021/07/24 04:50:26;;;;;;;11.55;8.07;;;20.70;97.80;;;;;;5031609;28;20036;-75
2021/07/24 04:52:52;;;;;;;13.35;8.93;;;20.80;97.90;;;;;;5031603;28;20124;-75
2021/07/24 04:55:18;;;;;;;10.82;8.80;;;20.70;98.00;;;;;;5031054;28;20057;-77
2021/07/24 04:57:44;;;;;;;12.93;8.77;;;20.80;97.90;;;;;;5033080;28;20504;-76
2021/07/24 05:00:13;;;;;;;10.40;9.15;;;20.90;97.70;;;;;;5031728;28;20026;-77
2021/07/24 05:02:39;;;;;;;13.93;8.25;;;21.10;97.50;;;;;;5032977;28;20171;-76
2021/07/24 05:05:05;;;;;;;18.70;8.50;;;21.10;97.30;;;;;;5032242;28;20112;-73
2021/07/24 05:07:32;;;;;;;11.73;8.80;;;21.10;97.20;;;;;;5031871;28;20557;-77
2021/07/24 05:09:58;;;;;;;18.52;9.23;;;21.10;96.90;;;;;;5033474;28;20025;-77
2021/07/24 05:12:24;;;;;;;12.35;9.20;;;21.20;97.00;;;;;;5032289;28;20582;-76
2021/07/24 05:14:50;;;;;;;13.00;9.02;;;20.80;97.60;;;;;;5033124;28;20124;-75
2021/07/24 05:17:16;;;;;;;11.85;9.38;;;20.90;97.50;;;;;;5032545;28;20021;-78
2021/07/24 05:19:43;;;;;;;13.93;8.73;;;20.90;97.50;;;;;;5033110;28;20037;-75
2021/07/24 05:22:12;;;;;;;10.15;8.68;;;21.00;97.30;;;;;;5032784;28;20037;-70
2021/07/24 05:24:43;;;;;;;11.73;8.30;;;21.10;97.20;;;;;;5032944;28;20072;-76
2021/07/24 05:27:09;;;;;;;;;;;21.20;97.10;;;;;;5032360;28;20025;-69
2021/07/24 05:29:35;;;;;;;11.52;8.32;;;21.20;96.90;;;;;;5033299;28;19912;-78
2021/07/24 05:32:00;;;;;;;13.65;8.82;;;21.30;96.90;;;;;;5031291;28;20397;-77
2021/07/24 05:34:26;;;;;;;12.05;7.75;;;21.30;97.00;;;;;;5032494;28;20036;-77
2021/07/24 05:36:52;;;;;;;11.20;8.35;;;21.30;96.80;;;;;;5031365;28;20037;-76
2021/07/24 05:39:18;;;;;;;17.83;9.38;;;21.30;96.90;;;;;;5032160;28;20022;-76
2021/07/24 05:41:44;;;;;;;15.68;8.88;;;21.30;96.80;;;;;;5032744;28;20045;-77
2021/07/24 05:44:12;;;;;;;13.48;9.15;;;21.40;96.80;;;;;;5032346;28;20036;-71
2021/07/24 05:46:38;;;;;;;16.48;8.43;;;21.40;96.80;;;;;;5032918;28;20100;-76
2021/07/24 05:49:04;;;;;;;12.93;8.32;;;21.40;96.70;;;;;;5032758;28;20029;-76
2021/07/24 05:51:30;;;;;;;12.38;8.90;;;21.40;96.80;;;;;;5030631;28;20389;-77
2021/07/24 05:53:56;;;;;;;9.90;7.88;;;21.50;96.80;;;;;;5030784;28;20490;-77
2021/07/24 05:56:22;;;;;;;15.70;9.82;;;21.60;96.50;;;;;;5030538;28;20025;-76
2021/07/24 05:58:48;;;;;;;9.48;8.25;;;21.70;96.30;;;;;;5033004;28;20048;-76
2021/07/24 06:01:13;;;;;;;11.70;8.18;;;21.70;96.10;;;;;;5030853;28;20522;-75
2021/07/24 06:03:40;;;;;;;12.45;9.48;;;21.90;96.10;;;;;;5030135;28;20041;-76
2021/07/24 06:06:06;;;;;;;14.93;8.93;;;21.90;96.10;;;;;;5030926;28;20033;-78
2021/07/24 06:08:32;;;;;;;9.75;8.20;;;22.00;96.00;;;;;;5030394;28;20021;-78
2021/07/24 06:11:02;;;;;;;14.10;9.40;;;22.00;96.20;;;;;;5030937;28;20529;-77
2021/07/24 06:13:28;;;;;;;17.67;11.23;;;22.10;95.80;;;;;;5030316;28;20033;-76
2021/07/24 06:15:54;;;;;;;18.65;12.40;;;22.10;95.60;;;;;;5032050;28;20429;-76
2021/07/24 06:18:21;;;;;;;11.65;10.00;;;22.20;95.70;;;;;;5030313;28;20490;-76
2021/07/24 06:20:48;;;;;;;11.93;10.45;;;22.40;95.50;;;;;;5030598;28;20068;-77
2021/07/24 06:23:15;;;;;;;10.93;8.95;;;22.50;95.20;;;;;;5032034;28;20030;-69
2021/07/24 06:25:42;;;;;;;14.68;10.77;;;22.60;95.00;;;;;;5032795;28;20209;-78
2021/07/24 06:28:08;;;;;;;13.95;10.45;;;22.50;94.90;;;;;;5031943;28;20088;-79
2021/07/24 06:30:34;;;;;;;12.35;9.57;;;22.50;94.90;;;;;;5031391;28;20368;-76
2021/07/24 06:32:59;;;;;;;14.55;8.98;;;22.50;95.00;;;;;;5033252;28;20041;-77
2021/07/24 06:35:25;;;;;;;13.25;8.60;;;22.50;95.10;;;;;;5033616;28;20378;-76
2021/07/24 06:37:52;;;;;;;12.95;8.93;;;22.40;95.00;;;;;;5033468;28;20423;-77
2021/07/24 06:40:18;;;;;;;13.45;9.77;;;22.40;95.30;;;;;;5031648;28;20021;-76
2021/07/24 06:42:43;;;;;;;14.27;9.80;;;22.40;95.10;;;;;;5031632;28;20056;-76
2021/07/24 06:45:09;;;;;;;12.15;10.25;;;22.40;95.20;;;;;;5030795;28;20431;-77
2021/07/24 06:47:35;;;;;;;18.85;10.77;;;22.00;95.60;;;;;;5030822;28;20034;-76
2021/07/24 06:50:01;;;;;;;15.07;10.15;;;22.10;95.90;;;;;;5030115;28;20074;-77
2021/07/24 06:52:26;;;;;;;16.98;10.50;;;22.10;95.90;;;;;;5029723;28;20355;-76
2021/07/24 06:54:52;;;;;;;11.43;9.55;;;22.20;96.00;;;;;;5030657;28;20407;-77
2021/07/24 06:57:18;;;;;;;11.18;9.60;;;22.30;95.70;;;;;;5029249;28;20030;-77
2021/07/24 06:59:43;;;;;;;10.63;9.52;;;22.30;95.70;;;;;;5032200;28;20112;-78
2021/07/24 07:02:10;;;;;;;13.73;11.00;;;22.40;95.70;;;;;;5031736;28;20390;-77
2021/07/24 07:04:36;;;;;;;22.65;10.55;;;22.50;95.80;;;;;;5029368;28;20451;-77
2021/07/24 07:07:03;;;;;;;14.57;10.50;;;22.60;95.50;;;;;;5029615;28;20079;-77
2021/07/24 07:09:29;;;;;;;14.50;10.07;;;22.60;95.50;;;;;;5030544;28;20359;-78
2021/07/24 07:11:58;;;;;;;15.98;10.43;;;22.70;95.10;;;;;;5029569;28;20068;-77
2021/07/24 07:14:24;;;;;;;13.85;10.05;;;22.60;94.70;;;;;;5028847;28;20194;-77
2021/07/24 07:16:50;;;;;;;14.18;10.93;;;22.50;95.50;;;;;;5029861;28;20045;-77
2021/07/24 07:19:16;;;;;;;11.80;9.98;;;22.70;95.30;;;;;;5031280;28;20028;-69
2021/07/24 07:21:42;;;;;;;10.65;9.20;;;22.60;95.20;;;;;;5030768;28;20449;-77
2021/07/24 07:24:07;;;;;;;11.95;9.15;;;22.50;95.40;;;;;;5029982;28;20025;-78
2021/07/24 07:26:33;;;;;;;18.05;10.32;;;22.50;95.70;;;;;;5028994;28;20087;-78
2021/07/24 07:29:03;;;;;;;14.18;10.40;;;22.70;95.40;;;;;;5031751;28;20025;-76
2021/07/24 07:31:32;;;;;;;15.00;9.60;;;22.70;95.10;;;;;;5030496;28;20036;-80
2021/07/24 07:33:59;;;;;;;16.70;9.90;;;22.70;95.20;;;;;;5030411;28;20214;-77
2021/07/24 07:36:24;;;;;;;15.57;10.38;;;22.80;94.80;;;;;;5029359;28;20029;-78
2021/07/24 07:38:50;;;;;;;18.90;10.43;;;22.50;95.20;;;;;;5030171;28;20107;-78
2021/07/24 07:41:17;;;;;;;12.30;9.73;;;22.40;95.10;;;;;;5030416;28;20046;-70
2021/07/24 07:43:43;;;;;;;19.33;11.07;;;22.40;95.10;;;;;;5029714;28;20021;-77
2021/07/24 07:46:10;;;;;;;18.17;10.88;;;22.30;95.30;;;;;;5029170;28;20017;-78
2021/07/24 07:48:36;;;;;;;15.15;10.32;;;22.20;95.80;;;;;;5028091;28;20100;-76
2021/07/24 07:51:06;;;;;;;15.65;11.27;;;22.30;95.80;;;;;;5030218;28;20025;-75
2021/07/24 07:53:32;;;;;;;16.60;11.35;;;22.40;95.30;;;;;;5029706;28;20030;-75
2021/07/24 07:55:58;;;;;;;15.60;11.52;;;22.50;95.50;;;;;;5030693;28;20392;-76
2021/07/24 07:58:24;;;;;;;16.63;11.00;;;22.40;95.60;;;;;;5029117;28;20037;-75
2021/07/24 08:00:51;;;;;;;17.38;10.75;;;22.40;95.80;;;;;;5030813;28;20048;-77
2021/07/24 08:03:17;;;;;;;16.00;10.65;;;22.50;95.80;;;;;;5031314;28;20065;-68
2021/07/24 08:05:42;;;;;;;13.55;10.75;;;22.80;95.40;;;;;;5029769;28;20124;-76
2021/07/24 08:08:08;;;;;;;15.90;10.00;;;23.30;94.70;;;;;;5030906;28;20026;-76
2021/07/24 08:10:34;;;;;;;13.52;10.40;;;23.40;94.50;;;;;;5028355;28;20053;-76
2021/07/24 08:13:13;;;;;;;13.30;10.88;;;23.50;94.30;;;;;;5031253;28;20187;-77
2021/07/24 08:15:39;;;;;;;10.95;9.85;;;23.40;94.40;;;;;;5028497;28;20018;-77
2021/07/24 08:18:05;;;;;;;15.15;10.80;;;23.80;94.00;;;;;;5030542;28;20076;-75
2021/07/24 08:20:31;;;;;;;13.90;10.05;;;23.50;94.10;;;;;;5029109;28;20472;-77
2021/07/24 08:22:57;;;;;;;13.77;10.07;;;23.50;94.30;;;;;;5028570;28;20056;-76
2021/07/24 08:25:23;;;;;;;14.23;9.93;;;23.50;94.30;;;;;;5028191;28;20093;-75
2021/07/24 08:27:48;;;;;;;20.55;11.65;;;23.70;93.90;;;;;;5031509;28;20033;-74
2021/07/24 08:30:14;;;;;;;12.40;10.57;;;23.90;93.60;;;;;;5033767;28;20109;-76
2021/07/24 08:32:40;;;;;;;15.27;11.32;;;23.60;94.10;;;;;;5032496;28;20108;-77
2021/07/24 08:35:05;;;;;;;12.52;10.43;;;23.80;94.50;;;;;;5033668;28;20048;-76
2021/07/24 08:37:34;;;;;;;12.52;9.85;;;23.90;93.60;;;;;;5030808;28;20032;-76
2021/07/24 08:40:00;;;;;;;13.20;11.13;;;24.20;93.30;;;;;;5033399;28;20038;-77
2021/07/24 08:42:36;;;;;;;16.67;11.38;;;24.40;93.10;;;;;;5031041;28;20049;-77
2021/07/24 08:45:03;;;;;;;14.50;10.32;;;24.50;93.30;;;;;;5033955;28;20017;-76
2021/07/24 08:47:30;;;;;;;12.15;10.30;;;24.20;93.40;;;;;;5031089;28;20029;-77
2021/07/24 08:50:06;;;;;;;14.90;10.57;;;24.00;93.70;;;;;;5033080;28;20029;-77
2021/07/24 08:52:33;;;;;;;13.82;9.45;;;24.00;93.80;;;;;;5032472;28;20466;-77
2021/07/24 08:55:01;;;;;;;13.95;10.75;;;24.10;93.40;;;;;;5032078;28;20037;-77
2021/07/24 08:57:34;;;;;;;11.80;9.95;;;24.10;93.60;;;;;;5032745;28;20025;-76
2021/07/24 09:00:12;;;;;;;11.18;9.68;;;23.80;93.80;;;;;;5031848;28;20041;-75
2021/07/24 09:02:42;;;;;;;14.93;9.75;;;23.80;94.00;;;;;;5032705;28;20087;-76
2021/07/24 09:05:10;;;;;;;16.88;10.55;;;23.80;94.30;;;;;;5033163;28;20018;-75
2021/07/24 09:07:39;;;;;;;11.13;9.88;;;23.90;94.30;;;;;;5032273;28;20037;-75
2021/07/24 09:10:06;;;;;;;12.15;9.95;;;23.80;94.20;;;;;;5032799;28;20463;-77
2021/07/24 09:12:33;;;;;;;19.77;9.38;;;23.70;94.40;;;;;;5031134;28;20042;-77
2021/07/24 09:14:59;;;;;;;17.15;10.30;;;23.80;94.50;;;;;;5028301;28;20022;-76
2021/07/24 09:17:25;;;;;;;23.20;10.57;;;23.70;94.40;;;;;;5020955;28;20470;-56
2021/07/24 09:19:51;;;;;;;11.73;9.95;;;23.90;94.30;;;;;;5032679;28;20417;-53
2021/07/24 09:22:32;;;;;;;12.07;8.82;;;24.10;93.90;;;;;;5031970;28;20491;-49
2021/07/24 09:25:17;;;;;;;;;;;24.30;93.60;;;;;;5032274;28;20378;-50
2021/07/24 09:27:44;;;;;;;13.07;8.65;;;24.30;93.70;;;;;;5031342;28;20333;-50
2021/07/24 09:30:28;;;;;;;13.73;8.90;;;24.60;93.20;;;;;;5030961;28;20054;-50
2021/07/24 09:33:02;;;;;;;11.60;8.57;;;24.40;93.40;;;;;;5031910;28;20029;-50
2021/07/24 09:35:38;;;;;;;11.18;8.15;;;24.60;92.90;;;;;;5025931;28;20037;-50
2021/07/24 09:38:27;;;;;;;9.73;7.82;;;24.60;93.00;;;;;;5016782;28;20099;-55
2021/07/24 09:40:54;;;;;;;10.40;8.88;;;24.60;92.90;;;;;;5019250;28;20095;-50
2021/07/24 09:43:30;;;;;;;13.30;9.70;;;24.60;92.80;;;;;;5027167;28;20046;-51
2021/07/24 09:46:15;;;;;;;10.60;8.65;;;24.50;93.00;;;;;;5017315;28;20033;-52
2021/07/24 09:48:48;;;;;;;15.10;8.77;;;24.40;93.20;;;;;;5017567;28;20202;-50
2021/07/24 09:51:16;;;;;;;13.45;9.05;;;24.40;93.30;;;;;;5018722;28;20057;-52
2021/07/24 09:53:45;;;;;;;14.80;9.48;;;24.50;93.20;;;;;;5016986;28;20803;-53
2021/07/24 09:56:19;;;;;;;11.98;9.10;;;24.50;93.30;;;;;;5019518;28;20029;-52
2021/07/24 09:58:46;;;;;;;11.32;8.45;;;24.40;93.40;;;;;;5018536;28;20026;-50
2021/07/24 10:01:18;;;;;;;10.85;8.50;;;24.50;93.10;;;;;;5023030;28;20497;-50
2021/07/24 10:03:48;;;;;;;14.55;10.15;;;24.50;93.20;;;;;;5018467;28;20113;-52
2021/07/24 10:06:15;;;;;;;10.25;9.07;;;24.50;92.80;;;;;;5019013;28;20121;-51
2021/07/24 10:08:43;;;;;;;14.60;10.15;;;24.20;93.20;;;;;;5018470;28;20161;-51
2021/07/24 10:11:10;;;;;;;16.30;9.77;;;24.30;93.40;;;;;;5020105;28;20455;-55
2021/07/24 10:13:37;;;;;;;15.70;9.93;;;24.40;93.40;;;;;;5017082;28;20049;-50
2021/07/24 10:16:03;;;;;;;12.40;9.07;;;24.30;93.60;;;;;;5018962;28;20129;-50
2021/07/24 10:18:29;;;;;;;15.65;10.30;;;24.40;93.60;;;;;;5017735;28;20017;-51
2021/07/24 10:20:55;;;;;;;14.65;10.25;;;24.30;93.70;;;;;;5019481;28;20514;-52
2021/07/24 10:23:26;;;;;;;14.30;9.80;;;24.30;93.90;;;;;;5020278;28;20078;-50
2021/07/24 10:26:17;;;;;;;10.40;9.15;;;24.30;93.90;;;;;;5017186;28;20105;-49
2021/07/24 10:29:05;;;;;;;14.00;10.25;;;24.30;94.00;;;;;;5025352;28;20022;-51
2021/07/24 10:31:42;;;;;;;15.60;9.88;;;24.40;94.00;;;;;;5022466;28;20037;-49
2021/07/24 10:34:11;;;;;;;13.52;10.05;;;24.70;93.80;;;;;;5023336;28;20034;-51
2021/07/24 10:36:42;;;;;;;11.02;9.77;;;25.20;95.00;;;;;;5018538;28;20027;-56
2021/07/24 10:39:11;;;;;;;;;;;25.40;92.10;;;;;;5022669;28;20451;-52
2021/07/24 10:41:40;;;;;;;14.65;9.55;;;25.60;91.60;;;;;;5020584;28;19925;-49
2021/07/24 10:44:35;;;;;;;10.10;8.65;;;25.80;91.30;;;;;;5023182;28;20032;-50
2021/07/24 10:47:01;;;;;;;12.70;9.75;;;26.40;91.10;;;;;;5020683;28;20080;-50
2021/07/24 10:49:32;;;;;;;11.32;9.43;;;26.80;90.70;;;;;;5020782;28;20104;-58
2021/07/24 10:52:03;;;;;;;17.83;9.20;;;26.70;91.00;;;;;;5018060;28;20049;-50
2021/07/24 10:54:30;;;;;;;14.95;9.48;;;27.00;91.10;;;;;;5016021;28;20021;-48
2021/07/24 10:56:58;;;;;;;12.95;9.93;;;26.90;90.80;;;;;;5022845;28;20116;-51
2021/07/24 10:59:28;;;;;;;15.05;9.82;;;26.90;91.00;;;;;;5022925;28;20455;-56
2021/07/24 11:02:01;;;;;;;11.13;8.63;;;26.90;90.80;;;;;;5018708;28;20029;-51
2021/07/24 11:04:36;;;;;;;17.25;9.35;;;27.30;89.90;;;;;;5018276;28;20064;-55
2021/07/24 11:07:14;;;;;;;14.85;9.18;;;28.00;90.30;;;;;;5019804;28;20025;-50
2021/07/24 11:09:43;;;;;;;12.32;8.85;;;28.30;92.20;;;;;;5019664;28;20052;-49
2021/07/24 11:12:13;;;;;;;9.63;8.27;;;28.60;92.80;;;;;;5020210;28;20111;-52
2021/07/24 11:14:42;;;;;;;11.80;8.60;;;28.60;91.60;;;;;;5020702;28;20116;-50
2021/07/24 11:17:08;;;;;;;15.50;8.93;;;28.70;91.00;;;;;;5029333;28;20077;-49
2021/07/24 11:20:05;;;;;;;12.50;8.38;;;28.90;89.40;;;;;;5028910;28;20128;-52
2021/07/24 11:22:32;;;;;;;13.85;7.85;;;28.90;89.90;;;;;;5014593;28;20076;-48
2021/07/24 11:24:58;;;;;;;12.43;8.45;;;29.50;87.70;;;;;;5029248;28;20028;-50
2021/07/24 11:27:26;;;;;;;14.52;8.85;;;30.00;85.20;;;;;;5029085;28;20042;-55
2021/07/24 11:30:13;;;;;;;9.73;8.60;;;30.00;82.70;;;;;;5027585;28;20030;-49
2021/07/24 11:32:42;;;;;;;11.32;8.80;;;29.50;83.70;;;;;;5024986;28;20037;-52
2021/07/24 11:35:13;;;;;;;8.82;7.93;;;29.30;84.10;;;;;;5017842;28;20394;-49
2021/07/24 11:37:39;;;;;;;12.77;8.55;;;29.20;84.80;;;;;;5008410;28;20462;-50
2021/07/24 11:40:07;;;;;;;11.68;8.60;;;28.40;85.20;;;;;;5009185;28;20037;-49
2021/07/24 11:42:33;;;;;;;10.07;8.50;;;28.30;86.00;;;;;;5009696;28;20041;-49
2021/07/24 11:44:58;;;;;;;11.13;8.27;;;28.40;86.40;;;;;;5009390;28;20125;-49
2021/07/24 11:47:24;;;;;;;11.05;8.20;;;28.10;86.20;;;;;;5009026;28;20382;-56
2021/07/24 11:49:50;;;;;;;15.82;8.18;;;28.00;87.00;;;;;;5008627;28;20030;-49
